Mccreary, Canada
Current Conditions -  °F | °C
As of 7:00 AM on Friday 28 Nov 2014 (Local Time) from CYDN Reporting Station
Light Snow Light Snow  
Wind Chill: -10°   Ceiling: 1500
Heat Index:   Visibility: 1.5mi
Dew Point:   Wind: 10mph
Humidity: 85%   Direction: 60°ENE
Pressure: 30.05"   Gusts: NA
Location:  50.78°N, 99.48°W
Report Text: CYDN 281300Z AUTO 06009KT 1 1/2SM -SN OVC015 M15/M17 A3005 RMK SLP206
Loading
Personal Weather Stations






























Interactive Weather Map New forecast layout! Learn more

10-Day Weather Forecast

Advertisements
Track Severe Weather on mobile